Terminal Aerodrome Forecast
Issued by NWS Charleston, SC

Current Version | Previous Version | Text Only | Print | Product List | Glossary Off
Versions: 1 2 3 4 5 6 7 8 9 10 11 12 13 14 15 16 17 18 19 20 21 22

000
FTUS42 KCHS 290252 AAB
TAFCHS
TAF AMD
KCHS 290252Z 2903/2924 24006KT P6SM MIFG SCT250
     FM291300 33007KT P6SM SKC
     FM292100 19009KT P6SM SCT060=

USA.gov is the U.S. government's official web portal to all federal, state and local government web resources and services.